Time;durP1;ratioP1;P1;durP2;ratioP2;P2;SDS_P1;SDS_P2;PMS_P1;PMS_P2;Temp;Humidity;BMP_temperature;BMP_pressure;BME280_temperature;BME280_humidity;BME280_pressure;Samples;Min_cycle;Max_cycle;Signal;HPM_P1;HPM_P2
2021/04/02 00:02:00;;;;;;;1.80;1.20;;;8.10;99.90;;;;;;5014543;28;20520;-46
2021/04/02 00:04:27;;;;;;;2.13;1.30;;;8.10;99.90;;;;;;5014903;28;20870;-47
2021/04/02 00:06:54;;;;;;;2.57;1.40;;;8.10;99.90;;;;;;5013884;28;20458;-50
2021/04/02 00:09:21;;;;;;;1.43;1.03;;;8.10;99.90;;;;;;5013932;28;20474;-53
2021/04/02 00:11:47;;;;;;;4.70;1.30;;;8.10;99.90;;;;;;5014996;28;20510;-49
2021/04/02 00:14:13;;;;;;;2.73;1.07;;;8.20;99.90;;;;;;5014496;28;20473;-50
2021/04/02 00:16:39;;;;;;;2.10;1.10;;;8.20;99.90;;;;;;5014551;28;20460;-48
2021/04/02 00:19:06;;;;;;;1.30;1.03;;;8.10;99.90;;;;;;5015115;28;20464;-49
2021/04/02 00:21:34;;;;;;;1.47;1.10;;;8.20;99.90;;;;;;5006891;28;20446;-49
2021/04/02 00:24:01;;;;;;;4.37;2.30;;;8.20;99.90;;;;;;5014590;28;20457;-50
2021/04/02 00:26:28;;;;;;;2.80;1.37;;;8.10;99.90;;;;;;5014283;28;20442;-47
2021/04/02 00:28:55;;;;;;;1.30;1.00;;;8.10;99.90;;;;;;5014263;28;20450;-51
2021/04/02 00:31:23;;;;;;;1.60;1.23;;;8.10;99.90;;;;;;5015034;28;20469;-50
2021/04/02 00:33:50;;;;;;;1.87;1.43;;;8.10;99.90;;;;;;5014764;28;20461;-49
2021/04/02 00:36:16;;;;;;;1.80;1.20;;;8.10;99.90;;;;;;5014366;28;20458;-45
2021/04/02 00:38:42;;;;;;;1.70;1.00;;;8.10;99.90;;;;;;5014056;28;20449;-45
2021/04/02 00:41:12;;;;;;;5.07;1.60;;;8.10;99.90;;;;;;5014400;28;20477;-46
2021/04/02 00:43:39;;;;;;;2.30;1.40;;;8.10;99.90;;;;;;5012546;28;20500;-54
2021/04/02 00:46:07;;;;;;;2.10;1.23;;;8.10;99.90;;;;;;5013309;28;20446;-50
2021/04/02 00:48:34;;;;;;;4.07;3.00;;;8.10;99.90;;;;;;5013563;28;20481;-52
2021/04/02 00:51:01;;;;;;;2.87;1.50;;;8.10;99.90;;;;;;5013598;28;20481;-54
2021/04/02 00:53:29;;;;;;;2.50;1.30;;;8.10;99.90;;;;;;5014942;28;20453;-48
2021/04/02 00:55:58;;;;;;;3.67;1.53;;;8.00;99.90;;;;;;5014567;28;20458;-51
2021/04/02 00:58:27;;;;;;;1.60;1.07;;;8.00;99.90;;;;;;5014144;28;20552;-52
2021/04/02 01:00:54;;;;;;;2.13;1.60;;;7.90;99.90;;;;;;5013929;28;20446;-54
2021/04/02 01:03:20;;;;;;;3.33;1.60;;;7.90;99.90;;;;;;5014587;28;20452;-47
2021/04/02 01:05:48;;;;;;;4.53;1.23;;;7.90;99.90;;;;;;5014384;28;20480;-49
2021/04/02 01:08:18;;;;;;;6.90;1.63;;;7.80;99.90;;;;;;5014534;28;20457;-47
2021/04/02 01:10:45;;;;;;;2.40;1.60;;;7.70;99.90;;;;;;5014282;28;20474;-48
2021/04/02 01:13:14;;;;;;;2.57;1.67;;;7.60;99.90;;;;;;5013820;28;20456;-50
2021/04/02 01:15:43;;;;;;;5.07;1.63;;;7.60;99.90;;;;;;5014127;28;20457;-49
2021/04/02 01:18:15;;;;;;;3.77;1.20;;;7.60;99.90;;;;;;5014394;28;20524;-45
2021/04/02 01:20:45;;;;;;;3.93;1.60;;;7.60;99.90;;;;;;5014083;28;20431;-54
2021/04/02 01:23:14;;;;;;;1.67;1.30;;;7.60;99.90;;;;;;5014336;28;20435;-50
2021/04/02 01:25:47;;;;;;;3.50;1.60;;;7.60;99.90;;;;;;5014618;28;20442;-52
2021/04/02 01:28:32;;;;;;;3.13;1.40;;;7.60;99.90;;;;;;5014495;28;20856;-46
2021/04/02 01:31:01;;;;;;;1.70;1.37;;;7.60;99.90;;;;;;5013865;28;20552;-51
2021/04/02 01:33:29;;;;;;;3.57;1.60;;;7.50;99.90;;;;;;5013879;28;20446;-46
2021/04/02 01:35:56;;;;;;;7.03;3.03;;;7.50;99.90;;;;;;5014548;28;20454;-48
2021/04/02 01:38:28;;;;;;;5.07;1.60;;;7.50;99.90;;;;;;5014172;28;20550;-47
2021/04/02 01:40:59;;;;;;;2.60;1.50;;;7.40;99.90;;;;;;5014584;28;20423;-53
2021/04/02 01:43:32;;;;;;;2.43;1.50;;;7.40;99.90;;;;;;5014607;28;20430;-50
2021/04/02 01:46:00;;;;;;;5.90;2.00;;;7.30;99.90;;;;;;5014601;28;20434;-48
2021/04/02 01:48:27;;;;;;;2.80;1.60;;;7.30;99.90;;;;;;5014951;28;20563;-50
2021/04/02 01:50:55;;;;;;;3.00;1.80;;;7.30;99.90;;;;;;5014419;28;20477;-52
2021/04/02 01:53:24;;;;;;;2.50;1.80;;;7.30;99.90;;;;;;5014607;28;20974;-47
2021/04/02 01:55:51;;;;;;;1.80;1.40;;;7.30;99.90;;;;;;5015087;28;20599;-49
2021/04/02 01:58:22;;;;;;;2.13;1.43;;;7.20;99.90;;;;;;5014376;28;20469;-48
2021/04/02 02:00:52;;;;;;;2.93;1.50;;;7.20;99.90;;;;;;5014567;28;20891;-46
2021/04/02 02:03:20;;;;;;;1.97;1.57;;;7.20;99.90;;;;;;5015309;28;20465;-45
2021/04/02 02:05:47;;;;;;;5.20;1.60;;;7.10;99.90;;;;;;5014601;28;20489;-52
2021/04/02 02:08:14;;;;;;;3.10;1.63;;;7.00;99.90;;;;;;5014341;28;20450;-50
2021/04/02 02:10:45;;;;;;;3.33;1.37;;;7.00;99.90;;;;;;5014218;28;20540;-52
2021/04/02 02:13:12;;;;;;;3.30;1.73;;;6.90;99.90;;;;;;5014650;28;20442;-50
2021/04/02 02:15:41;;;;;;;4.77;2.07;;;6.80;99.90;;;;;;5015150;28;20887;-46
2021/04/02 02:18:12;;;;;;;1.67;1.40;;;6.70;99.90;;;;;;5014881;28;20456;-48
2021/04/02 02:20:41;;;;;;;2.17;1.63;;;6.60;99.90;;;;;;5015747;28;20459;-45
2021/04/02 02:23:08;;;;;;;3.53;1.87;;;6.50;99.90;;;;;;5016005;28;20438;-50
2021/04/02 02:25:34;;;;;;;2.00;1.60;;;6.50;99.90;;;;;;5015552;28;20442;-46
2021/04/02 02:28:01;;;;;;;3.20;1.87;;;6.40;99.90;;;;;;5015629;28;20481;-49
2021/04/02 02:30:29;;;;;;;2.33;1.57;;;6.40;99.90;;;;;;5015378;28;20489;-46
2021/04/02 02:32:57;;;;;;;2.70;1.97;;;6.40;99.90;;;;;;5015489;28;20446;-48
2021/04/02 02:35:23;;;;;;;3.80;1.50;;;6.30;99.90;;;;;;5016163;28;20449;-52
2021/04/02 02:37:51;;;;;;;2.77;2.00;;;6.30;99.90;;;;;;5015937;28;20450;-45
2021/04/02 02:40:21;;;;;;;1.90;1.30;;;6.40;99.90;;;;;;5015626;28;20532;-50
2021/04/02 02:42:48;;;;;;;6.10;1.53;;;6.30;99.90;;;;;;5015540;28;20438;-52
2021/04/02 02:45:15;;;;;;;2.60;1.47;;;6.30;99.90;;;;;;5014740;28;20445;-47
2021/04/02 02:47:41;;;;;;;3.97;2.33;;;6.30;99.90;;;;;;5015541;28;20450;-48
2021/04/02 02:50:15;;;;;;;2.00;1.43;;;6.30;99.90;;;;;;5015228;28;20485;-46
2021/04/02 02:52:41;;;;;;;4.77;1.70;;;6.20;99.90;;;;;;5014945;28;20434;-46
2021/04/02 02:55:10;;;;;;;5.60;2.43;;;6.20;99.90;;;;;;5014919;28;20437;-48
2021/04/02 02:57:38;;;;;;;3.43;1.70;;;6.20;99.90;;;;;;5015010;28;20438;-50
2021/04/02 03:00:09;;;;;;;6.00;2.50;;;6.10;99.90;;;;;;5015140;28;20434;-53
2021/04/02 03:02:37;;;;;;;4.63;1.77;;;6.00;99.90;;;;;;5015654;28;20450;-44
2021/04/02 03:05:05;;;;;;;8.80;2.03;;;6.00;99.90;;;;;;5015493;28;20482;-44
2021/04/02 03:07:33;;;;;;;3.10;2.20;;;6.00;99.90;;;;;;5015568;28;20434;-47
2021/04/02 03:10:00;;;;;;;4.63;2.93;;;5.90;99.90;;;;;;5014349;28;20473;-46
2021/04/02 03:12:28;;;;;;;6.10;2.70;;;5.90;99.90;;;;;;5015511;28;20449;-49
2021/04/02 03:14:55;;;;;;;4.67;2.53;;;5.80;99.90;;;;;;5016819;28;20454;-45
2021/04/02 03:17:23;;;;;;;4.00;2.10;;;5.80;99.90;;;;;;5023230;28;20438;-44
2021/04/02 03:19:50;;;;;;;3.80;2.23;;;5.80;99.90;;;;;;5005584;28;20485;-44
2021/04/02 03:22:18;;;;;;;3.50;2.03;;;5.70;99.90;;;;;;5007816;28;20929;-48
2021/04/02 03:24:47;;;;;;;2.87;1.97;;;5.70;99.90;;;;;;5020044;28;20476;-43
2021/04/02 03:27:14;;;;;;;4.53;2.10;;;5.70;99.90;;;;;;5025552;28;20445;-45
2021/04/02 03:29:41;;;;;;;3.17;1.90;;;5.70;99.90;;;;;;5031429;28;20757;-49
2021/04/02 03:32:10;;;;;;;2.60;2.30;;;5.60;99.90;;;;;;5029979;28;20445;-51
2021/04/02 03:34:38;;;;;;;3.90;2.30;;;5.60;99.90;;;;;;5030233;28;20479;-44
2021/04/02 03:37:09;;;;;;;3.30;2.50;;;5.60;99.90;;;;;;5015959;28;20437;-45
2021/04/02 03:39:40;;;;;;;5.07;2.07;;;5.50;99.90;;;;;;5003934;28;21100;-47
2021/04/02 03:42:10;;;;;;;4.33;2.40;;;5.40;99.90;;;;;;5003457;28;20465;-43
2021/04/02 03:44:37;;;;;;;5.83;1.80;;;5.40;99.90;;;;;;5026537;28;20445;-46
2021/04/02 03:47:07;;;;;;;6.60;2.57;;;5.40;99.90;;;;;;5038909;28;20831;-49
2021/04/02 03:49:36;;;;;;;2.90;2.63;;;5.30;99.90;;;;;;5021915;28;20434;-47
2021/04/02 03:52:07;;;;;;;4.53;2.57;;;5.40;99.90;;;;;;5012438;28;20437;-47
2021/04/02 03:54:37;;;;;;;3.43;2.43;;;5.40;99.90;;;;;;5012638;28;20437;-50
2021/04/02 03:57:05;;;;;;;3.40;2.10;;;5.40;99.90;;;;;;5012751;28;20441;-50
2021/04/02 03:59:34;;;;;;;2.37;2.07;;;5.40;99.90;;;;;;5012314;28;20481;-56
2021/04/02 04:02:02;;;;;;;5.90;2.43;;;5.40;99.90;;;;;;5012048;28;20477;-52
2021/04/02 04:04:31;;;;;;;10.30;2.93;;;5.40;99.90;;;;;;5003808;28;20970;-49
2021/04/02 04:06:59;;;;;;;5.23;2.77;;;5.40;99.90;;;;;;5004310;28;20802;-53
2021/04/02 04:09:28;;;;;;;3.03;2.33;;;5.40;99.90;;;;;;5003119;28;20946;-51
2021/04/02 04:11:56;;;;;;;2.70;2.40;;;5.40;99.90;;;;;;5003366;28;20453;-54
2021/04/02 04:14:23;;;;;;;4.00;2.50;;;5.40;99.90;;;;;;5003007;28;20441;-50
2021/04/02 04:16:50;;;;;;;7.47;2.70;;;5.40;99.90;;;;;;5003421;28;20457;-54
2021/04/02 04:19:18;;;;;;;2.93;2.73;;;5.40;99.90;;;;;;5003132;28;20457;-54
2021/04/02 04:21:47;;;;;;;9.00;2.30;;;5.40;99.90;;;;;;5003587;28;20446;-51
2021/04/02 04:24:16;;;;;;;4.73;2.57;;;5.40;99.90;;;;;;5002706;28;20818;-51
2021/04/02 04:26:47;;;;;;;3.87;2.33;;;5.40;99.90;;;;;;5002547;28;20462;-53
2021/04/02 04:29:16;;;;;;;2.70;2.00;;;5.40;99.90;;;;;;5002904;28;20464;-51
2021/04/02 04:31:44;;;;;;;4.20;2.60;;;5.30;99.90;;;;;;5002627;28;20449;-55
2021/04/02 04:34:11;;;;;;;3.53;2.20;;;5.30;99.90;;;;;;5003019;28;20450;-48
2021/04/02 04:36:39;;;;;;;3.90;2.20;;;5.20;99.90;;;;;;5003083;28;20450;-51
2021/04/02 04:39:07;;;;;;;8.70;2.50;;;5.30;99.90;;;;;;5002938;28;20450;-49
2021/04/02 04:41:35;;;;;;;6.00;3.13;;;5.30;99.90;;;;;;5002621;28;20481;-48
2021/04/02 04:44:04;;;;;;;3.97;3.20;;;5.20;99.90;;;;;;5002227;28;20469;-50
2021/04/02 04:46:31;;;;;;;5.47;2.70;;;5.20;99.90;;;;;;5002308;28;20457;-50
2021/04/02 04:48:57;;;;;;;5.97;3.47;;;5.20;99.90;;;;;;5002870;28;20749;-50
2021/04/02 04:51:28;;;;;;;7.30;2.70;;;5.30;99.90;;;;;;5003294;28;20513;-47
2021/04/02 04:53:56;;;;;;;4.43;3.10;;;5.20;99.90;;;;;;5003300;28;20438;-51
2021/04/02 04:56:28;;;;;;;3.10;2.40;;;5.20;99.90;;;;;;5002850;28;20523;-54
2021/04/02 04:58:59;;;;;;;4.13;2.90;;;5.30;99.90;;;;;;5003279;28;20465;-47
2021/04/02 05:01:27;;;;;;;4.50;2.70;;;5.30;99.90;;;;;;5003002;28;20470;-53
2021/04/02 05:03:55;;;;;;;4.10;3.47;;;5.30;99.90;;;;;;5001816;28;20998;-51
2021/04/02 05:06:22;;;;;;;4.30;2.93;;;5.30;99.90;;;;;;5001754;28;20540;-53
2021/04/02 05:08:52;;;;;;;3.70;2.67;;;5.30;99.90;;;;;;5001964;28;20598;-54
2021/04/02 05:11:24;;;;;;;5.53;2.70;;;5.30;99.90;;;;;;5002152;28;20508;-48
2021/04/02 05:13:53;;;;;;;7.23;3.33;;;5.30;99.90;;;;;;5002200;28;20461;-55
2021/04/02 05:16:22;;;;;;;8.30;3.63;;;5.40;99.90;;;;;;5001906;28;20442;-54
2021/04/02 05:18:49;;;;;;;4.40;3.27;;;5.40;99.90;;;;;;5001831;28;20787;-48
2021/04/02 05:21:17;;;;;;;8.37;3.00;;;5.40;99.90;;;;;;5002087;28;20509;-53
2021/04/02 05:23:43;;;;;;;5.63;3.37;;;5.40;99.90;;;;;;5001831;28;20465;-51
2021/04/02 05:26:13;;;;;;;4.73;3.20;;;5.50;99.90;;;;;;5002127;28;20446;-51
2021/04/02 05:28:40;;;;;;;3.93;3.53;;;5.50;99.90;;;;;;5001772;28;20442;-51
2021/04/02 05:31:07;;;;;;;4.17;2.80;;;5.50;99.90;;;;;;5001989;28;20450;-50
2021/04/02 05:33:33;;;;;;;4.63;3.10;;;5.40;99.90;;;;;;5001150;28;20449;-53
2021/04/02 05:36:03;;;;;;;3.90;3.53;;;5.40;99.90;;;;;;5001015;28;20446;-48
2021/04/02 05:38:30;;;;;;;6.20;3.33;;;5.40;99.90;;;;;;5000988;28;20779;-48
2021/04/02 05:41:00;;;;;;;3.80;2.53;;;5.50;99.90;;;;;;5000700;28;20504;-48
2021/04/02 05:43:33;;;;;;;3.83;3.43;;;5.50;99.90;;;;;;5001159;28;20461;-51
2021/04/02 05:46:02;;;;;;;3.03;2.70;;;5.50;99.90;;;;;;5000533;28;20450;-51
2021/04/02 05:48:31;;;;;;;5.63;3.33;;;5.50;99.90;;;;;;5000406;28;20450;-51
2021/04/02 05:51:00;;;;;;;6.50;3.77;;;5.60;99.90;;;;;;4999902;28;20520;-50
2021/04/02 05:53:29;;;;;;;7.93;4.60;;;5.60;99.90;;;;;;5000496;28;20527;-48
2021/04/02 05:55:56;;;;;;;5.53;3.70;;;5.60;99.90;;;;;;5000804;28;20446;-48
2021/04/02 05:58:23;;;;;;;5.70;4.17;;;5.60;99.90;;;;;;4999877;28;20446;-53
2021/04/02 06:00:50;;;;;;;10.30;3.80;;;5.70;99.90;;;;;;5000658;28;20488;-48
2021/04/02 06:03:18;;;;;;;4.57;3.27;;;5.70;99.90;;;;;;5000479;28;20449;-53
2021/04/02 06:05:44;;;;;;;8.17;4.23;;;5.70;99.90;;;;;;4999963;28;20542;-52
2021/04/02 06:08:11;;;;;;;4.93;3.90;;;5.70;99.90;;;;;;5000786;28;20513;-48
2021/04/02 06:10:38;;;;;;;4.23;3.73;;;5.80;99.90;;;;;;5000058;28;20489;-53
2021/04/02 06:13:04;;;;;;;6.33;3.90;;;5.80;99.90;;;;;;4999820;28;20454;-53
2021/04/02 06:15:33;;;;;;;7.60;5.00;;;5.80;99.90;;;;;;5000750;28;20461;-47
2021/04/02 06:18:01;;;;;;;8.13;4.90;;;5.80;99.90;;;;;;5000332;28;20473;-51
2021/04/02 06:20:31;;;;;;;11.13;5.37;;;5.80;99.90;;;;;;4999988;28;20481;-51
2021/04/02 06:23:06;;;;;;;6.03;4.70;;;5.80;99.90;;;;;;5000216;28;20446;-48
2021/04/02 06:25:33;;;;;;;12.17;5.33;;;5.80;99.90;;;;;;5000581;28;20473;-54
2021/04/02 06:27:59;;;;;;;8.70;5.30;;;5.80;99.90;;;;;;4999547;28;20464;-50
2021/04/02 06:30:27;;;;;;;8.20;5.90;;;5.90;99.90;;;;;;4999567;28;20467;-49
2021/04/02 06:32:54;;;;;;;11.40;6.63;;;5.90;99.90;;;;;;5000265;28;20524;-51
2021/04/02 06:35:24;;;;;;;8.73;5.73;;;5.80;99.90;;;;;;5000522;28;20445;-49
2021/04/02 06:37:55;;;;;;;12.23;6.43;;;5.80;99.90;;;;;;4980197;28;20450;-49
2021/04/02 06:40:23;;;;;;;12.33;6.17;;;5.80;99.90;;;;;;4980266;28;20577;-51
2021/04/02 06:42:50;;;;;;;13.67;6.27;;;5.70;99.90;;;;;;4993712;28;20454;-49
2021/04/02 06:45:19;;;;;;;10.20;5.87;;;5.70;99.90;;;;;;4999956;28;20464;-50
2021/04/02 06:47:45;;;;;;;10.00;7.10;;;5.80;99.90;;;;;;4999319;28;20461;-47
2021/04/02 06:50:17;;;;;;;17.90;6.90;;;5.90;99.90;;;;;;4999294;28;20458;-51
2021/04/02 06:52:48;;;;;;;11.23;8.10;;;5.90;99.90;;;;;;4999247;28;20445;-51
2021/04/02 06:55:16;;;;;;;12.20;6.80;;;6.00;99.90;;;;;;4999988;28;20442;-50
2021/04/02 06:57:46;;;;;;;14.13;8.50;;;6.00;99.90;;;;;;4999767;28;20461;-46
2021/04/02 07:00:17;;;;;;;13.33;8.30;;;5.90;99.90;;;;;;4998650;28;20548;-58
2021/04/02 07:02:47;;;;;;;17.10;8.90;;;5.90;99.90;;;;;;4999577;28;20438;-51
2021/04/02 07:05:17;;;;;;;17.53;9.60;;;6.00;99.90;;;;;;4999111;28;20480;-58
2021/04/02 07:07:46;;;;;;;13.40;8.80;;;6.10;99.90;;;;;;5006058;28;20557;-58
2021/04/02 07:10:16;;;;;;;14.93;9.60;;;6.20;99.90;;;;;;5005967;28;20450;-59
2021/04/02 07:12:48;;;;;;;13.37;8.97;;;6.20;99.90;;;;;;5006774;28;20442;-57
2021/04/02 07:15:15;;;;;;;17.57;10.30;;;6.30;99.90;;;;;;5006004;28;20500;-57
2021/04/02 07:17:42;;;;;;;16.40;10.50;;;6.30;99.90;;;;;;5004913;28;20450;-55
2021/04/02 07:20:09;;;;;;;17.60;11.67;;;6.60;99.90;;;;;;5003877;28;20481;-58
2021/04/02 07:22:36;;;;;;;18.47;10.93;;;6.80;99.90;;;;;;5003921;28;20454;-57
2021/04/02 07:25:03;;;;;;;14.23;9.50;;;6.90;99.90;;;;;;5003382;28;20465;-51
2021/04/02 07:27:31;;;;;;;20.07;11.23;;;7.10;99.90;;;;;;5003373;28;20528;-56
2021/04/02 07:29:59;;;;;;;16.40;9.87;;;7.10;99.90;;;;;;4986298;28;20461;-59
2021/04/02 07:32:26;;;;;;;21.90;12.53;;;7.30;99.90;;;;;;5003783;28;20493;-57
2021/04/02 07:34:54;;;;;;;21.33;13.97;;;7.40;99.90;;;;;;5003386;28;20465;-58
2021/04/02 07:37:21;;;;;;;25.20;13.10;;;7.40;99.90;;;;;;5003767;28;20477;-57
2021/04/02 07:39:48;;;;;;;24.60;13.50;;;7.60;99.90;;;;;;5002392;28;20535;-56
2021/04/02 07:42:14;;;;;;;19.13;11.80;;;7.60;99.90;;;;;;5002695;28;20454;-58
2021/04/02 07:44:43;;;;;;;24.20;13.77;;;7.60;99.90;;;;;;5002737;28;20449;-53
2021/04/02 07:47:12;;;;;;;25.13;14.03;;;7.80;99.90;;;;;;5002040;28;20461;-58
2021/04/02 07:49:54;;;;;;;16.60;10.90;;;7.90;99.90;;;;;;5001288;28;20446;-56
2021/04/02 07:52:30;;;;;;;17.20;11.60;;;8.00;99.90;;;;;;5001018;28;20449;-59
2021/04/02 07:55:10;;;;;;;17.97;12.37;;;7.90;99.90;;;;;;5001781;28;20429;-54
2021/04/02 07:57:55;;;;;;;16.17;10.63;;;7.90;99.90;;;;;;5001790;28;20437;-54
2021/04/02 08:00:23;;;;;;;19.33;11.77;;;7.90;99.90;;;;;;5001054;28;20497;-58
2021/04/02 08:03:13;;;;;;;16.20;10.20;;;8.00;99.90;;;;;;5001315;28;20450;-59
2021/04/02 08:05:46;;;;;;;13.03;8.53;;;8.10;99.90;;;;;;5001281;28;20501;-58
2021/04/02 08:08:16;;;;;;;13.70;9.63;;;8.10;99.90;;;;;;5002320;28;20506;-58
2021/04/02 08:11:01;;;;;;;16.73;10.77;;;8.00;99.90;;;;;;5002860;28;20441;-59
2021/04/02 08:13:27;;;;;;;15.20;10.50;;;8.10;99.90;;;;;;5004821;28;20450;-56
2021/04/02 08:15:57;;;;;;;14.57;10.00;;;8.40;99.90;;;;;;5004527;28;20453;-60
2021/04/02 08:18:26;;;;;;;13.30;8.70;;;8.90;99.90;;;;;;5003339;28;20919;-58
2021/04/02 08:20:55;;;;;;;11.07;7.53;;;9.50;99.90;;;;;;5002923;28;20504;-55
2021/04/02 08:23:23;;;;;;;12.30;7.87;;;10.20;99.90;;;;;;5003376;28;20501;-56
2021/04/02 08:25:55;;;;;;;12.67;8.17;;;10.60;99.90;;;;;;5002956;28;20446;-56
2021/04/02 08:28:25;;;;;;;11.70;6.67;;;11.00;99.90;;;;;;5002672;28;20517;-55
2021/04/02 08:30:53;;;;;;;7.50;6.03;;;11.80;99.90;;;;;;5001920;28;20462;-59
2021/04/02 08:33:19;;;;;;;12.50;6.77;;;13.10;99.90;;;;;;5002252;28;20481;-58
2021/04/02 08:35:47;;;;;;;6.70;4.70;;;14.10;99.90;;;;;;5000876;28;20449;-59
2021/04/02 08:38:13;;;;;;;6.53;5.47;;;15.30;99.90;;;;;;5000308;28;20458;-59
2021/04/02 08:40:40;;;;;;;6.60;4.77;;;16.50;94.90;;;;;;4999888;28;20820;-59
2021/04/02 08:43:08;;;;;;;6.63;4.70;;;17.50;90.00;;;;;;4999940;28;20450;-59
2021/04/02 08:45:36;;;;;;;5.00;4.00;;;18.30;79.40;;;;;;4999441;28;20446;-60
2021/04/02 08:48:03;;;;;;;7.30;5.27;;;19.10;71.30;;;;;;4999298;28;20961;-58
2021/04/02 08:50:30;;;;;;;7.20;4.00;;;19.60;66.90;;;;;;5000063;28;20453;-59
2021/04/02 08:53:09;;;;;;;4.67;3.77;;;19.60;64.30;;;;;;4999556;28;20454;-58
2021/04/02 08:55:36;;;;;;;4.60;3.90;;;20.20;61.10;;;;;;4999669;28;20438;-58
2021/04/02 08:58:02;;;;;;;4.90;4.33;;;19.90;59.40;;;;;;4999533;28;20442;-58
2021/04/02 09:00:29;;;;;;;6.60;4.73;;;20.10;58.50;;;;;;4999826;28;20478;-59
2021/04/02 09:02:56;;;;;;;4.53;4.13;;;20.20;57.50;;;;;;4999586;28;20445;-58
2021/04/02 09:05:23;;;;;;;4.77;4.10;;;20.60;56.80;;;;;;4999050;28;20975;-56
2021/04/02 09:07:49;;;;;;;4.83;3.57;;;20.80;55.90;;;;;;4999270;28;20446;-57
2021/04/02 09:10:18;;;;;;;5.00;4.50;;;21.00;55.00;;;;;;4998905;28;20460;-54
2021/04/02 09:12:46;;;;;;;6.63;4.40;;;20.90;54.40;;;;;;4998870;28;20446;-60
2021/04/02 09:15:20;;;;;;;6.93;5.60;;;21.20;53.60;;;;;;4998452;28;20465;-58
2021/04/02 09:17:47;;;;;;;6.03;5.33;;;21.10;52.50;;;;;;4998464;28;20434;-58
2021/04/02 09:20:15;;;;;;;7.37;6.57;;;21.10;52.80;;;;;;4998324;28;20481;-58
2021/04/02 09:22:44;;;;;;;7.33;6.63;;;21.00;52.80;;;;;;4997730;28;20596;-58
2021/04/02 09:25:14;;;;;;;7.17;6.47;;;20.50;53.00;;;;;;4998980;28;20922;-59
2021/04/02 09:27:41;;;;;;;6.87;6.17;;;20.30;53.30;;;;;;4998718;28;20453;-58
2021/04/02 09:30:09;;;;;;;8.23;6.93;;;19.70;53.50;;;;;;4998622;28;20456;-56
2021/04/02 09:32:37;;;;;;;7.30;6.13;;;19.80;54.10;;;;;;4998804;28;20460;-58
2021/04/02 09:35:05;;;;;;;6.90;5.60;;;19.80;54.00;;;;;;4999068;28;20541;-58
2021/04/02 09:37:34;;;;;;;8.30;6.73;;;19.70;54.00;;;;;;4999119;28;20545;-56
2021/04/02 09:40:03;;;;;;;5.53;4.90;;;19.70;54.00;;;;;;4998545;28;20462;-58
2021/04/02 09:42:33;;;;;;;5.87;5.20;;;19.70;53.80;;;;;;4999129;28;20558;-57
2021/04/02 09:45:06;;;;;;;5.30;4.30;;;19.30;54.20;;;;;;4999493;28;20450;-58
2021/04/02 09:47:39;;;;;;;5.30;4.10;;;18.90;55.70;;;;;;4999134;28;20783;-58
2021/04/02 09:50:09;;;;;;;6.30;3.77;;;19.30;54.10;;;;;;4998734;28;20430;-61
2021/04/02 09:52:37;;;;;;;25.23;17.10;;;19.60;52.80;;;;;;4998621;28;20464;-58
2021/04/02 09:55:04;;;;;;;6.83;4.23;;;19.00;53.70;;;;;;4998444;28;20519;-58
2021/04/02 09:57:30;;;;;;;6.33;4.50;;;18.70;54.10;;;;;;4998825;28;20453;-55
2021/04/02 09:59:57;;;;;;;4.23;3.53;;;18.20;54.00;;;;;;4998919;28;20446;-52
2021/04/02 10:02:24;;;;;;;4.03;3.23;;;17.30;55.40;;;;;;4999088;28;20855;-57
2021/04/02 10:04:50;;;;;;;4.43;3.37;;;17.30;57.00;;;;;;4999341;28;20469;-55
2021/04/02 10:07:16;;;;;;;3.20;2.90;;;17.70;56.50;;;;;;4998607;28;20454;-56
2021/04/02 10:09:42;;;;;;;5.70;3.13;;;17.90;55.40;;;;;;4999209;28;20520;-57
2021/04/02 10:12:10;;;;;;;7.30;5.40;;;18.50;54.60;;;;;;4998201;28;20468;-57
2021/04/02 10:14:36;;;;;;;3.93;2.70;;;17.90;54.60;;;;;;4998836;28;20457;-56
2021/04/02 10:17:03;;;;;;;5.33;3.00;;;17.60;55.60;;;;;;4999058;28;20457;-57
2021/04/02 10:19:32;;;;;;;9.23;3.50;;;17.70;54.90;;;;;;4998856;28;20466;-57
2021/04/02 10:21:58;;;;;;;3.30;2.50;;;17.90;55.40;;;;;;4998733;28;20568;-58
2021/04/02 10:24:24;;;;;;;3.50;2.73;;;17.50;55.00;;;;;;4999377;28;20755;-59
2021/04/02 10:26:54;;;;;;;3.80;2.27;;;17.30;55.50;;;;;;4999515;28;20458;-56
2021/04/02 10:29:20;;;;;;;3.07;2.27;;;17.10;56.10;;;;;;4999267;28;20456;-53
2021/04/02 10:31:46;;;;;;;3.10;1.97;;;17.10;56.70;;;;;;4998936;28;20438;-58
2021/04/02 10:34:12;;;;;;;2.17;1.83;;;17.40;52.30;;;;;;4998309;28;20524;-57
2021/04/02 10:36:39;;;;;;;2.20;2.00;;;17.60;52.50;;;;;;4998715;28;20446;-56
2021/04/02 10:39:06;;;;;;;4.90;2.00;;;17.60;49.50;;;;;;4998554;28;20473;-58
2021/04/02 10:41:32;;;;;;;3.07;1.70;;;17.10;49.00;;;;;;4998154;28;20482;-59
2021/04/02 10:43:58;;;;;;;2.23;1.27;;;17.20;51.10;;;;;;4997924;28;20497;-58
2021/04/02 10:46:27;;;;;;;2.37;1.30;;;17.40;50.40;;;;;;4998260;28;20466;-58
2021/04/02 10:48:54;;;;;;;2.30;1.70;;;17.60;50.30;;;;;;4998483;28;20446;-59
2021/04/02 10:51:26;;;;;;;2.03;1.53;;;17.60;50.20;;;;;;4998144;28;20454;-57
2021/04/02 10:54:00;;;;;;;3.10;1.90;;;17.50;50.40;;;;;;4998358;28;20437;-59
2021/04/02 10:56:26;;;;;;;2.07;1.70;;;17.40;50.70;;;;;;4998252;28;20426;-57
2021/04/02 10:58:52;;;;;;;2.20;1.50;;;16.70;51.30;;;;;;4998251;28;20508;-57
2021/04/02 11:01:19;;;;;;;1.63;1.40;;;16.30;52.10;;;;;;4997932;28;20540;-53
2021/04/02 11:03:45;;;;;;;2.30;1.93;;;16.00;52.50;;;;;;4997944;28;20430;-54
2021/04/02 11:06:11;;;;;;;2.27;1.53;;;16.20;52.20;;;;;;5015485;23;20497;-55
2021/04/02 11:08:37;;;;;;;1.83;1.50;;;15.50;52.90;;;;;;4997490;28;20462;-55
2021/04/02 11:11:05;;;;;;;2.23;1.50;;;15.40;54.70;;;;;;4997604;28;20457;-57
2021/04/02 11:13:31;;;;;;;3.90;1.60;;;15.00;55.00;;;;;;4997942;28;20529;-57
2021/04/02 11:15:57;;;;;;;2.03;1.67;;;14.70;56.10;;;;;;4997909;28;20489;-51
2021/04/02 11:18:23;;;;;;;2.20;1.67;;;14.50;56.70;;;;;;4997783;28;20953;-58
2021/04/02 11:20:49;;;;;;;2.43;1.70;;;14.20;55.50;;;;;;4998069;28;20501;-56
2021/04/02 11:23:18;;;;;;;2.37;1.43;;;13.90;55.90;;;;;;4998592;28;20763;-55
2021/04/02 11:25:44;;;;;;;2.70;1.87;;;13.70;56.30;;;;;;4998817;28;20466;-59
2021/04/02 11:28:11;;;;;;;2.97;1.87;;;13.40;56.70;;;;;;4999023;28;20478;-56
2021/04/02 11:30:37;;;;;;;2.87;1.97;;;13.30;58.00;;;;;;4998487;28;20453;-55
2021/04/02 11:33:04;;;;;;;2.40;1.93;;;13.40;57.70;;;;;;4997911;28;20462;-56
2021/04/02 11:35:30;;;;;;;2.80;2.10;;;13.40;57.90;;;;;;4998983;28;20489;-57
2021/04/02 11:37:56;;;;;;;2.30;1.70;;;13.10;59.50;;;;;;4999380;28;20442;-53
2021/04/02 11:40:23;;;;;;;3.10;2.30;;;12.90;61.20;;;;;;4998644;28;20481;-57
2021/04/02 11:42:49;;;;;;;2.70;2.07;;;12.90;63.00;;;;;;4998746;28;20481;-57
2021/04/02 11:45:17;;;;;;;2.90;2.30;;;13.10;63.30;;;;;;4999045;28;20505;-58
2021/04/02 11:47:43;;;;;;;4.93;2.67;;;13.20;61.80;;;;;;5002895;28;20582;-54
2021/04/02 11:50:10;;;;;;;4.70;2.10;;;13.10;62.10;;;;;;5002515;28;20462;-55
2021/04/02 11:52:37;;;;;;;2.30;1.57;;;13.10;62.70;;;;;;5003138;28;20453;-55
2021/04/02 11:55:04;;;;;;;3.83;2.20;;;12.80;60.40;;;;;;5003060;28;20549;-55
2021/04/02 11:57:30;;;;;;;5.00;1.90;;;12.40;61.80;;;;;;5003097;28;20454;-54
2021/04/02 11:59:57;;;;;;;2.97;1.70;;;12.30;63.20;;;;;;5003232;28;20442;-54
2021/04/02 12:02:24;;;;;;;2.47;1.57;;;12.20;63.60;;;;;;5002996;28;20446;-51
2021/04/02 12:04:50;;;;;;;3.97;2.00;;;12.20;64.50;;;;;;5002683;28;20919;-54
2021/04/02 12:07:16;;;;;;;2.93;1.73;;;12.20;63.10;;;;;;5002225;28;20477;-50
2021/04/02 12:09:42;;;;;;;4.30;1.63;;;12.30;63.20;;;;;;5002868;28;20445;-55
2021/04/02 12:12:09;;;;;;;13.77;5.53;;;12.30;62.80;;;;;;5002625;28;20477;-57
2021/04/02 12:14:35;;;;;;;5.80;3.00;;;12.40;62.10;;;;;;5002774;28;20461;-57
2021/04/02 12:17:01;;;;;;;3.93;2.10;;;12.20;62.10;;;;;;5002746;28;20453;-55
2021/04/02 12:19:28;;;;;;;2.37;1.20;;;12.30;62.80;;;;;;5002484;28;20516;-58
2021/04/02 12:21:54;;;;;;;2.40;1.70;;;12.40;61.70;;;;;;5002226;28;20473;-55
2021/04/02 12:24:20;;;;;;;2.33;1.30;;;12.40;61.40;;;;;;5002388;28;20469;-58
2021/04/02 12:26:47;;;;;;;3.43;1.10;;;12.20;59.80;;;;;;5002457;28;20530;-55
2021/04/02 12:29:13;;;;;;;3.10;1.50;;;12.30;59.80;;;;;;5002804;28;20445;-58
2021/04/02 12:31:39;;;;;;;4.17;1.33;;;12.50;60.20;;;;;;5001818;28;20458;-58
2021/04/02 12:34:05;;;;;;;1.80;1.10;;;12.70;59.70;;;;;;5001904;28;20438;-54
2021/04/02 12:36:32;;;;;;;2.87;1.43;;;12.90;59.40;;;;;;5001505;28;20457;-57
2021/04/02 12:38:58;;;;;;;3.20;1.20;;;12.90;58.80;;;;;;5001908;28;21068;-58
2021/04/02 12:41:24;;;;;;;2.40;1.67;;;13.00;58.50;;;;;;5001101;28;20478;-52
2021/04/02 12:43:50;;;;;;;2.50;1.23;;;13.10;58.90;;;;;;5001424;28;20441;-55
2021/04/02 12:46:17;;;;;;;2.17;1.37;;;13.50;59.00;;;;;;5000726;28;20561;-57
2021/04/02 12:48:43;;;;;;;2.37;1.33;;;13.60;57.90;;;;;;5001254;28;20458;-59
2021/04/02 12:51:09;;;;;;;2.40;1.30;;;13.60;57.60;;;;;;5000766;28;20438;-56
2021/04/02 12:53:36;;;;;;;4.13;1.47;;;13.60;58.50;;;;;;5001783;28;20922;-58
2021/04/02 12:56:04;;;;;;;2.10;1.67;;;13.60;58.40;;;;;;5001499;28;20453;-53